Open Full Screen Window  High Contrast Mode
Wind Gusting 23 knots
16
November 21, 2017 1:56 PM EST
Weather Information
Wind Direction
  220 °
Wind Speed
  16 kt (18 mph)
Wind Gust
  23 kt (26 mph)
Altimeter
29.90 in
Visibility
10 SM
Temperature
13° C
55° F
Dewpoint
-01° C
30° F
Humidity
38%
1hr Rain Fall
00.00 in.
24hr Rain Fall
00.00 in.
Sky Condition
Clear
VFR

METAR KI19 211856Z AUTO 22016G23KT 10SM CLR 13/M01 A2990 RMK AO2 T01311006

*Background is not an actual portrayal of the airport.